sensor_id;sensor_type;location;lat;lon;timestamp;pressure;altitude;pressure_sealevel;temperature;humidity
68654;BME280;55636;51.108;13.622;2023-12-20T00:00:04;99951.59;;;7.30;59.64
68654;BME280;55636;51.108;13.622;2023-12-20T00:01:09;99939.78;;;7.30;59.58
68654;BME280;55636;51.108;13.622;2023-12-20T00:02:12;99947.19;;;7.29;59.50
68654;BME280;55636;51.108;13.622;2023-12-20T00:03:14;99943.63;;;7.29;59.58
68654;BME280;55636;51.108;13.622;2023-12-20T00:04:18;99946.38;;;7.29;59.50
68654;BME280;55636;51.108;13.622;2023-12-20T00:05:20;99943.88;;;7.27;59.55
68654;BME280;55636;51.108;13.622;2023-12-20T00:06:23;99940.28;;;7.27;59.62
68654;BME280;55636;51.108;13.622;2023-12-20T00:07:25;99947.69;;;7.26;59.50
68654;BME280;55636;51.108;13.622;2023-12-20T00:08:28;99943.28;;;7.25;59.47
68654;BME280;55636;51.108;13.622;2023-12-20T00:09:30;99945.19;;;7.25;59.46
68654;BME280;55636;51.108;13.622;2023-12-20T00:10:33;99936.09;;;7.24;59.39
68654;BME280;55636;51.108;13.622;2023-12-20T00:11:35;99939.72;;;7.25;59.32
68654;BME280;55636;51.108;13.622;2023-12-20T00:12:37;99939.09;;;7.22;59.42
68654;BME280;55636;51.108;13.622;2023-12-20T00:13:40;99934.69;;;7.21;59.49
68654;BME280;55636;51.108;13.622;2023-12-20T00:14:42;99927.56;;;7.20;59.48
68654;BME280;55636;51.108;13.622;2023-12-20T00:15:44;99929.44;;;7.20;59.41
68654;BME280;55636;51.108;13.622;2023-12-20T00:16:47;99923.38;;;7.18;59.37
68654;BME280;55636;51.108;13.622;2023-12-20T00:17:49;99926.13;;;7.18;59.52
68654;BME280;55636;51.108;13.622;2023-12-20T00:18:52;99927.22;;;7.17;59.33
68654;BME280;55636;51.108;13.622;2023-12-20T00:19:55;99923.00;;;7.14;59.50
68654;BME280;55636;51.108;13.622;2023-12-20T00:20:58;99930.66;;;7.12;59.43
68654;BME280;55636;51.108;13.622;2023-12-20T00:22:00;99924.09;;;7.13;59.42
68654;BME280;55636;51.108;13.622;2023-12-20T00:23:03;99926.84;;;7.13;59.37
68654;BME280;55636;51.108;13.622;2023-12-20T00:24:06;99927.09;;;7.12;59.29
68654;BME280;55636;51.108;13.622;2023-12-20T00:25:09;99921.00;;;7.10;59.26
68654;BME280;55636;51.108;13.622;2023-12-20T00:26:11;99928.41;;;7.09;59.36
68654;BME280;55636;51.108;13.622;2023-12-20T00:27:13;99926.75;;;7.08;59.32
68654;BME280;55636;51.108;13.622;2023-12-20T00:28:16;99930.56;;;7.07;59.35
68654;BME280;55636;51.108;13.622;2023-12-20T00:29:18;99927.00;;;7.06;59.34
68654;BME280;55636;51.108;13.622;2023-12-20T00:30:21;99930.56;;;7.07;59.36
68654;BME280;55636;51.108;13.622;2023-12-20T00:31:24;99920.09;;;7.04;59.39
68654;BME280;55636;51.108;13.622;2023-12-20T00:32:27;99926.66;;;7.03;59.28
68654;BME280;55636;51.108;13.622;2023-12-20T00:33:29;99929.66;;;7.01;59.38
68654;BME280;55636;51.108;13.622;2023-12-20T00:34:32;99919.50;;;7.02;59.26
68654;BME280;55636;51.108;13.622;2023-12-20T00:35:35;99920.81;;;6.99;59.29
68654;BME280;55636;51.108;13.622;2023-12-20T00:36:37;99925.50;;;6.99;59.30
68654;BME280;55636;51.108;13.622;2023-12-20T00:37:40;99921.94;;;6.98;59.20
68654;BME280;55636;51.108;13.622;2023-12-20T00:38:42;99918.31;;;6.98;59.31
68654;BME280;55636;51.108;13.622;2023-12-20T00:39:45;99923.81;;;6.98;59.27
68654;BME280;55636;51.108;13.622;2023-12-20T00:40:47;99917.50;;;6.97;59.32
68654;BME280;55636;51.108;13.622;2023-12-20T00:41:49;99922.41;;;6.95;59.16
68654;BME280;55636;51.108;13.622;2023-12-20T00:42:52;99924.31;;;6.95;59.16
68654;BME280;55636;51.108;13.622;2023-12-20T00:43:55;99917.16;;;6.94;59.15
68654;BME280;55636;51.108;13.622;2023-12-20T00:44:59;99919.56;;;6.90;59.22
68654;BME280;55636;51.108;13.622;2023-12-20T00:46:01;99911.31;;;6.90;59.06
68654;BME280;55636;51.108;13.622;2023-12-20T00:47:04;99910.75;;;6.88;59.12
68654;BME280;55636;51.108;13.622;2023-12-20T00:48:06;99908.81;;;6.88;59.09
68654;BME280;55636;51.108;13.622;2023-12-20T00:49:09;99908.81;;;6.88;59.04
68654;BME280;55636;51.108;13.622;2023-12-20T00:50:11;99898.91;;;6.87;58.98
68654;BME280;55636;51.108;13.622;2023-12-20T00:51:14;99904.91;;;6.84;59.11
68654;BME280;55636;51.108;13.622;2023-12-20T00:52:16;99912.06;;;6.85;59.08
68654;BME280;55636;51.108;13.622;2023-12-20T00:53:19;99910.66;;;6.83;59.13
68654;BME280;55636;51.108;13.622;2023-12-20T00:54:22;99904.31;;;6.82;59.04
68654;BME280;55636;51.108;13.622;2023-12-20T00:55:24;99912.81;;;6.81;59.18
68654;BME280;55636;51.108;13.622;2023-12-20T00:56:27;99902.06;;;6.79;59.14
68654;BME280;55636;51.108;13.622;2023-12-20T00:57:29;99903.75;;;6.80;59.05
68654;BME280;55636;51.108;13.622;2023-12-20T00:58:31;99901.00;;;6.80;58.97
68654;BME280;55636;51.108;13.622;2023-12-20T00:59:34;99898.25;;;6.80;59.19
68654;BME280;55636;51.108;13.622;2023-12-20T01:00:36;99897.66;;;6.78;59.28
68654;BME280;55636;51.108;13.622;2023-12-20T01:01:41;99893.25;;;6.77;59.33
68654;BME280;55636;51.108;13.622;2023-12-20T01:02:44;99901.25;;;6.79;59.41
68654;BME280;55636;51.108;13.622;2023-12-20T01:03:48;99902.31;;;6.78;59.24
68654;BME280;55636;51.108;13.622;2023-12-20T01:04:53;99900.66;;;6.77;59.09
68654;BME280;55636;51.108;13.622;2023-12-20T01:05:56;99895.97;;;6.77;59.28
68654;BME280;55636;51.108;13.622;2023-12-20T01:06:58;99892.66;;;6.75;59.27
68654;BME280;55636;51.108;13.622;2023-12-20T01:08:00;99887.19;;;6.75;59.22
68654;BME280;55636;51.108;13.622;2023-12-20T01:09:05;99887.66;;;6.72;59.25
68654;BME280;55636;51.108;13.622;2023-12-20T01:10:07;99884.91;;;6.72;59.30
68654;BME280;55636;51.108;13.622;2023-12-20T01:11:10;99881.59;;;6.70;59.29
68654;BME280;55636;51.108;13.622;2023-12-20T01:12:12;99882.16;;;6.72;59.28
68654;BME280;55636;51.108;13.622;2023-12-20T01:13:15;99879.66;;;6.70;59.28
68654;BME280;55636;51.108;13.622;2023-12-20T01:14:17;99882.66;;;6.69;59.45
68654;BME280;55636;51.108;13.622;2023-12-20T01:15:20;99881.00;;;6.68;59.18
68654;BME280;55636;51.108;13.622;2023-12-20T01:16:22;99882.66;;;6.69;59.39
68654;BME280;55636;51.108;13.622;2023-12-20T01:17:25;99874.69;;;6.67;59.31
68654;BME280;55636;51.108;13.622;2023-12-20T01:18:28;99874.09;;;6.65;59.41
68654;BME280;55636;51.108;13.622;2023-12-20T01:19:30;99876.84;;;6.65;59.44
68654;BME280;55636;51.108;13.622;2023-12-20T01:20:33;99871.84;;;6.62;59.36
68654;BME280;55636;51.108;13.622;2023-12-20T01:21:35;99878.16;;;6.63;59.32
68654;BME280;55636;51.108;13.622;2023-12-20T01:22:38;99873.78;;;6.62;59.36
68654;BME280;55636;51.108;13.622;2023-12-20T01:23:40;99876.50;;;6.62;59.23
68654;BME280;55636;51.108;13.622;2023-12-20T01:24:42;99866.59;;;6.61;59.39
68654;BME280;55636;51.108;13.622;2023-12-20T01:25:45;99859.44;;;6.60;59.39
68654;BME280;55636;51.108;13.622;2023-12-20T01:26:47;99865.75;;;6.60;59.37
68654;BME280;55636;51.108;13.622;2023-12-20T01:27:50;99866.34;;;6.62;59.31
68654;BME280;55636;51.108;13.622;2023-12-20T01:28:52;99861.13;;;6.61;59.29
68654;BME280;55636;51.108;13.622;2023-12-20T01:29:54;99864.13;;;6.59;59.25
68654;BME280;55636;51.108;13.622;2023-12-20T01:30:57;99858.63;;;6.59;59.36
68654;BME280;55636;51.108;13.622;2023-12-20T01:32:00;99858.63;;;6.59;59.25
68654;BME280;55636;51.108;13.622;2023-12-20T01:33:04;99864.34;;;6.57;59.31
68654;BME280;55636;51.108;13.622;2023-12-20T01:34:08;99853.63;;;6.56;59.33
68654;BME280;55636;51.108;13.622;2023-12-20T01:35:10;99851.13;;;6.54;59.33
68654;BME280;55636;51.108;13.622;2023-12-20T01:36:14;99859.34;;;6.54;59.33
68654;BME280;55636;51.108;13.622;2023-12-20T01:37:17;99854.94;;;6.53;59.34
68654;BME280;55636;51.108;13.622;2023-12-20T01:38:19;99862.59;;;6.51;59.30
68654;BME280;55636;51.108;13.622;2023-12-20T01:39:22;99852.69;;;6.50;59.31
68654;BME280;55636;51.108;13.622;2023-12-20T01:40:30;99854.84;;;6.48;59.43
68654;BME280;55636;51.108;13.622;2023-12-20T01:41:33;99858.44;;;6.49;59.41
68654;BME280;55636;51.108;13.622;2023-12-20T01:42:35;99855.91;;;6.47;59.40
68654;BME280;55636;51.108;13.622;2023-12-20T01:43:38;99856.16;;;6.46;59.42
68654;BME280;55636;51.108;13.622;2023-12-20T01:44:51;99851.75;;;6.45;59.39
68654;BME280;55636;51.108;13.622;2023-12-20T01:45:56;99852.34;;;6.47;59.40
68654;BME280;55636;51.108;13.622;2023-12-20T01:46:59;99852.59;;;6.45;59.35
68654;BME280;55636;51.108;13.622;2023-12-20T01:48:03;99845.44;;;6.44;59.23
68654;BME280;55636;51.108;13.622;2023-12-20T01:49:07;99848.19;;;6.44;59.33
68654;BME280;55636;51.108;13.622;2023-12-20T01:50:10;99849.84;;;6.45;59.31
68654;BME280;55636;51.108;13.622;2023-12-20T01:51:12;99843.75;;;6.43;59.36
68654;BME280;55636;51.108;13.622;2023-12-20T01:52:16;99843.19;;;6.41;59.42
68654;BME280;55636;51.108;13.622;2023-12-20T01:53:21;99845.94;;;6.41;59.42
68654;BME280;55636;51.108;13.622;2023-12-20T01:54:26;99846.41;;;6.38;59.36
68654;BME280;55636;51.108;13.622;2023-12-20T01:55:31;99854.63;;;6.38;59.36
68654;BME280;55636;51.108;13.622;2023-12-20T01:56:36;99842.03;;;6.37;59.39
68654;BME280;55636;51.108;13.622;2023-12-20T01:57:43;99845.84;;;6.36;59.41
68654;BME280;55636;51.108;13.622;2023-12-20T01:58:46;99852.75;;;6.38;59.29
68654;BME280;55636;51.108;13.622;2023-12-20T01:59:53;99854.91;;;6.36;59.30
68654;BME280;55636;51.108;13.622;2023-12-20T02:00:55;99853.22;;;6.35;59.40
68654;BME280;55636;51.108;13.622;2023-12-20T02:01:58;99838.69;;;6.35;59.44
68654;BME280;55636;51.108;13.622;2023-12-20T02:03:01;99846.31;;;6.33;59.46
68654;BME280;55636;51.108;13.622;2023-12-20T02:04:04;99850.16;;;6.32;59.49
68654;BME280;55636;51.108;13.622;2023-12-20T02:05:09;99847.41;;;6.32;59.23
68654;BME280;55636;51.108;13.622;2023-12-20T02:06:12;99842.16;;;6.30;59.55
68654;BME280;55636;51.108;13.622;2023-12-20T02:07:14;99846.56;;;6.31;59.52
68654;BME280;55636;51.108;13.622;2023-12-20T02:08:19;99844.31;;;6.28;59.43
68654;BME280;55636;51.108;13.622;2023-12-20T02:09:22;99828.94;;;6.27;59.41
68654;BME280;55636;51.108;13.622;2023-12-20T02:10:26;99839.09;;;6.27;59.46
68654;BME280;55636;51.108;13.622;2023-12-20T02:11:29;99829.75;;;6.28;59.43
68654;BME280;55636;51.108;13.622;2023-12-20T02:12:33;99837.16;;;6.27;59.58
68654;BME280;55636;51.108;13.622;2023-12-20T02:13:35;99826.44;;;6.26;59.36
68654;BME280;55636;51.108;13.622;2023-12-20T02:14:38;99830.00;;;6.26;59.41
68654;BME280;55636;51.108;13.622;2023-12-20T02:15:40;99848.97;;;6.28;59.34
68654;BME280;55636;51.108;13.622;2023-12-20T02:16:46;99826.44;;;6.26;59.49
68654;BME280;55636;51.108;13.622;2023-12-20T02:17:49;99821.44;;;6.22;59.43
68654;BME280;55636;51.108;13.622;2023-12-20T02:18:51;99819.53;;;6.23;59.52
68654;BME280;55636;51.108;13.622;2023-12-20T02:19:54;99817.84;;;6.22;59.51
68654;BME280;55636;51.108;13.622;2023-12-20T02:20:56;99834.31;;;6.22;59.53
68654;BME280;55636;51.108;13.622;2023-12-20T02:22:25;99818.94;;;6.21;59.49
68654;BME280;55636;51.108;13.622;2023-12-20T02:23:28;99829.59;;;6.17;59.50
68654;BME280;55636;51.108;13.622;2023-12-20T02:24:30;99825.75;;;6.18;59.56
68654;BME280;55636;51.108;13.622;2023-12-20T02:25:33;99832.91;;;6.19;59.57
68654;BME280;55636;51.108;13.622;2023-12-20T02:26:35;99832.06;;;6.19;59.45
68654;BME280;55636;51.108;13.622;2023-12-20T02:27:39;99832.06;;;6.19;59.50
68654;BME280;55636;51.108;13.622;2023-12-20T02:28:41;99832.91;;;6.19;59.54
68654;BME280;55636;51.108;13.622;2023-12-20T02:29:46;99819.19;;;6.19;59.62
68654;BME280;55636;51.108;13.622;2023-12-20T02:30:49;99824.09;;;6.17;59.54
68654;BME280;55636;51.108;13.622;2023-12-20T02:31:52;99826.84;;;6.17;59.45
68654;BME280;55636;51.108;13.622;2023-12-20T02:32:54;99825.16;;;6.16;59.48
68654;BME280;55636;51.108;13.622;2023-12-20T02:33:57;99828.97;;;6.15;59.52
68654;BME280;55636;51.108;13.622;2023-12-20T02:35:00;99827.06;;;6.16;59.49
68654;BME280;55636;51.108;13.622;2023-12-20T02:36:02;99830.66;;;6.16;59.50
68654;BME280;55636;51.108;13.622;2023-12-20T02:37:05;99830.31;;;6.13;59.61
68654;BME280;55636;51.108;13.622;2023-12-20T02:38:08;99821.00;;;6.14;59.59
68654;BME280;55636;51.108;13.622;2023-12-20T02:39:11;99825.63;;;6.13;59.56
68654;BME280;55636;51.108;13.622;2023-12-20T02:40:13;99830.31;;;6.13;59.66
68654;BME280;55636;51.108;13.622;2023-12-20T02:41:15;99816.84;;;6.11;59.76
68654;BME280;55636;51.108;13.622;2023-12-20T02:42:20;99824.00;;;6.12;59.72
68654;BME280;55636;51.108;13.622;2023-12-20T02:43:22;99825.63;;;6.13;59.57
68654;BME280;55636;51.108;13.622;2023-12-20T02:44:25;99818.72;;;6.11;59.73
68654;BME280;55636;51.108;13.622;2023-12-20T02:45:27;99816.84;;;6.11;59.73
68654;BME280;55636;51.108;13.622;2023-12-20T02:46:30;99820.66;;;6.10;59.88
68654;BME280;55636;51.108;13.622;2023-12-20T02:47:32;99814.09;;;6.11;59.75
68654;BME280;55636;51.108;13.622;2023-12-20T02:48:35;99813.50;;;6.09;59.86
68654;BME280;55636;51.108;13.622;2023-12-20T02:49:37;99827.81;;;6.11;59.76
68654;BME280;55636;51.108;13.622;2023-12-20T02:50:40;99824.22;;;6.11;59.81
68654;BME280;55636;51.108;13.622;2023-12-20T02:51:42;99820.66;;;6.10;59.78
68654;BME280;55636;51.108;13.622;2023-12-20T02:52:45;99828.63;;;6.12;59.81
68654;BME280;55636;51.108;13.622;2023-12-20T02:53:48;99828.63;;;6.12;59.82
68654;BME280;55636;51.108;13.622;2023-12-20T02:54:50;99823.41;;;6.10;59.79
68654;BME280;55636;51.108;13.622;2023-12-20T02:55:53;99828.06;;;6.10;59.84
68654;BME280;55636;51.108;13.622;2023-12-20T02:56:55;99832.69;;;6.09;59.80
68654;BME280;55636;51.108;13.622;2023-12-20T02:57:57;99825.31;;;6.10;59.89
68654;BME280;55636;51.108;13.622;2023-12-20T02:59:00;99820.06;;;6.08;59.94
68654;BME280;55636;51.108;13.622;2023-12-20T03:00:03;99812.69;;;6.09;59.88
68654;BME280;55636;51.108;13.622;2023-12-20T03:01:05;99826.13;;;6.10;59.84
68654;BME280;55636;51.108;13.622;2023-12-20T03:02:08;99829.94;;;6.09;59.94
68654;BME280;55636;51.108;13.622;2023-12-20T03:03:11;99828.06;;;6.10;59.88
68654;BME280;55636;51.108;13.622;2023-12-20T03:04:13;99821.97;;;6.07;60.02
68654;BME280;55636;51.108;13.622;2023-12-20T03:05:16;99829.38;;;6.07;59.95
68654;BME280;55636;51.108;13.622;2023-12-20T03:06:18;99826.38;;;6.09;60.03
68654;BME280;55636;51.108;13.622;2023-12-20T03:07:21;99823.63;;;6.09;59.74
68654;BME280;55636;51.108;13.622;2023-12-20T03:08:23;99823.63;;;6.09;60.13
68654;BME280;55636;51.108;13.622;2023-12-20T03:09:30;99817.31;;;6.08;60.14
68654;BME280;55636;51.108;13.622;2023-12-20T03:10:48;99815.66;;;6.07;60.21
68654;BME280;55636;51.108;13.622;2023-12-20T03:11:50;99812.06;;;6.06;60.15
68654;BME280;55636;51.108;13.622;2023-12-20T03:12:52;99817.31;;;6.08;60.07
68654;BME280;55636;51.108;13.622;2023-12-20T03:13:56;99819.22;;;6.07;60.21
68654;BME280;55636;51.108;13.622;2023-12-20T03:14:58;99811.00;;;6.07;60.09
68654;BME280;55636;51.108;13.622;2023-12-20T03:16:00;99814.81;;;6.06;60.38
68654;BME280;55636;51.108;13.622;2023-12-20T03:17:03;99822.22;;;6.06;60.21
68654;BME280;55636;51.108;13.622;2023-12-20T03:18:05;99828.28;;;6.08;60.12
68654;BME280;55636;51.108;13.622;2023-12-20T03:19:08;99822.78;;;6.08;60.11
68654;BME280;55636;51.108;13.622;2023-12-20T03:20:11;99822.78;;;6.08;60.28
68654;BME280;55636;51.108;13.622;2023-12-20T03:21:13;99823.63;;;6.09;60.27
68654;BME280;55636;51.108;13.622;2023-12-20T03:22:15;99818.72;;;6.11;60.06
68654;BME280;55636;51.108;13.622;2023-12-20T03:23:18;99815.66;;;6.07;60.17
68654;BME280;55636;51.108;13.622;2023-12-20T03:24:20;99800.03;;;6.07;60.35
68654;BME280;55636;51.108;13.622;2023-12-20T03:25:22;99803.59;;;6.08;60.20
68654;BME280;55636;51.108;13.622;2023-12-20T03:26:25;99803.84;;;6.06;60.25
68654;BME280;55636;51.108;13.622;2023-12-20T03:27:27;99795.63;;;6.06;60.28
68654;BME280;55636;51.108;13.622;2023-12-20T03:28:30;99809.31;;;6.06;60.36
68654;BME280;55636;51.108;13.622;2023-12-20T03:29:33;99798.34;;;6.06;60.42
68654;BME280;55636;51.108;13.622;2023-12-20T03:30:36;99794.19;;;6.04;60.56
68654;BME280;55636;51.108;13.622;2023-12-20T03:31:38;99796.94;;;6.04;60.51
68654;BME280;55636;51.108;13.622;2023-12-20T03:32:42;99791.69;;;6.02;60.50
68654;BME280;55636;51.108;13.622;2023-12-20T03:33:44;99796.94;;;6.04;60.57
68654;BME280;55636;51.108;13.622;2023-12-20T03:34:47;99789.56;;;6.04;60.52
68654;BME280;55636;51.108;13.622;2023-12-20T03:35:50;99779.66;;;6.03;60.53
68654;BME280;55636;51.108;13.622;2023-12-20T03:36:53;99784.28;;;6.03;60.68
68654;BME280;55636;51.108;13.622;2023-12-20T03:37:55;99787.03;;;6.03;60.58
68654;BME280;55636;51.108;13.622;2023-12-20T03:38:59;99789.78;;;6.03;60.58
68654;BME280;55636;51.108;13.622;2023-12-20T03:40:02;99789.78;;;6.03;60.56
68654;BME280;55636;51.108;13.622;2023-12-20T03:41:06;99788.16;;;6.02;60.42
68654;BME280;55636;51.108;13.622;2023-12-20T03:42:09;99783.47;;;6.02;60.63
68654;BME280;55636;51.108;13.622;2023-12-20T03:43:11;99781.56;;;6.03;60.62
68654;BME280;55636;51.108;13.622;2023-12-20T03:44:14;99790.03;;;6.01;60.60
68654;BME280;55636;51.108;13.622;2023-12-20T03:45:16;99780.75;;;6.02;60.69
68654;BME280;55636;51.108;13.622;2023-12-20T03:46:19;99779.91;;;6.02;60.63
68654;BME280;55636;51.108;13.622;2023-12-20T03:47:22;99783.47;;;6.02;60.73
68654;BME280;55636;51.108;13.622;2023-12-20T03:48:24;99779.91;;;6.02;60.69
68654;BME280;55636;51.108;13.622;2023-12-20T03:49:27;99784.53;;;6.01;60.67
68654;BME280;55636;51.108;13.622;2023-12-20T03:50:31;99786.22;;;6.02;60.71
68654;BME280;55636;51.108;13.622;2023-12-20T03:51:34;99788.97;;;6.02;60.73
68654;BME280;55636;51.108;13.622;2023-12-20T03:52:36;99781.81;;;6.01;60.70
68654;BME280;55636;51.108;13.622;2023-12-20T03:53:38;99784.53;;;6.01;60.75
68654;BME280;55636;51.108;13.622;2023-12-20T03:54:42;99790.88;;;6.02;60.71
68654;BME280;55636;51.108;13.622;2023-12-20T03:55:45;99789.78;;;6.03;60.74
68654;BME280;55636;51.108;13.622;2023-12-20T03:56:47;99783.47;;;6.02;60.67
68654;BME280;55636;51.108;13.622;2023-12-20T03:57:50;99792.53;;;6.03;60.71
68654;BME280;55636;51.108;13.622;2023-12-20T03:58:53;99781.56;;;6.03;60.71
68654;BME280;55636;51.108;13.622;2023-12-20T03:59:55;99787.03;;;6.03;60.75
68654;BME280;55636;51.108;13.622;2023-12-20T04:01:01;99781.56;;;6.03;60.81
68654;BME280;55636;51.108;13.622;2023-12-20T04:02:04;99791.09;;;6.00;61.00
68654;BME280;55636;51.108;13.622;2023-12-20T04:03:07;99793.63;;;6.02;61.20
68654;BME280;55636;51.108;13.622;2023-12-20T04:04:10;99787.03;;;6.03;61.39
68654;BME280;55636;51.108;13.622;2023-12-20T04:05:13;99787.28;;;6.01;61.47
68654;BME280;55636;51.108;13.622;2023-12-20T04:06:19;99790.88;;;6.02;61.56
68654;BME280;55636;51.108;13.622;2023-12-20T04:07:21;99787.03;;;6.03;61.90
68654;BME280;55636;51.108;13.622;2023-12-20T04:08:24;99789.56;;;6.04;61.79
68654;BME280;55636;51.108;13.622;2023-12-20T04:09:26;99782.41;;;6.03;61.76
68654;BME280;55636;51.108;13.622;2023-12-20T04:10:29;99784.28;;;6.03;62.09
68654;BME280;55636;51.108;13.622;2023-12-20T04:11:31;99784.28;;;6.03;62.16
68654;BME280;55636;51.108;13.622;2023-12-20T04:12:34;99788.72;;;6.04;62.25
68654;BME280;55636;51.108;13.622;2023-12-20T04:13:36;99786.81;;;6.04;62.14
68654;BME280;55636;51.108;13.622;2023-12-20T04:14:39;99786.81;;;6.04;62.30
68654;BME280;55636;51.108;13.622;2023-12-20T04:15:41;99787.66;;;6.05;62.37
68654;BME280;55636;51.108;13.622;2023-12-20T04:16:43;99786.81;;;6.04;62.28
68654;BME280;55636;51.108;13.622;2023-12-20T04:17:48;99781.91;;;6.06;62.25
68654;BME280;55636;51.108;13.622;2023-12-20T04:18:51;99786.56;;;6.06;62.25
68654;BME280;55636;51.108;13.622;2023-12-20T04:19:54;99779.16;;;6.06;62.26
68654;BME280;55636;51.108;13.622;2023-12-20T04:20:57;99784.66;;;6.06;62.18
68654;BME280;55636;51.108;13.622;2023-12-20T04:21:59;99784.66;;;6.06;62.25
68654;BME280;55636;51.108;13.622;2023-12-20T04:23:02;99784.66;;;6.06;62.30
68654;BME280;55636;51.108;13.622;2023-12-20T04:24:04;99786.06;;;6.09;62.17
68654;BME280;55636;51.108;13.622;2023-12-20T04:25:07;99783.34;;;6.09;62.20
68654;BME280;55636;51.108;13.622;2023-12-20T04:26:10;99785.00;;;6.10;62.33
68654;BME280;55636;51.108;13.622;2023-12-20T04:27:12;99784.19;;;6.10;62.38
68654;BME280;55636;51.108;13.622;2023-12-20T04:28:15;99789.66;;;6.10;62.26
68654;BME280;55636;51.108;13.622;2023-12-20T04:29:17;99786.66;;;6.11;62.22
68654;BME280;55636;51.108;13.622;2023-12-20T04:30:20;99795.72;;;6.12;62.29
68654;BME280;55636;51.108;13.622;2023-12-20T04:31:23;99791.91;;;6.13;62.25
68654;BME280;55636;51.108;13.622;2023-12-20T04:32:26;99791.09;;;6.12;62.34
68654;BME280;55636;51.108;13.622;2023-12-20T04:33:28;99785.59;;;6.12;62.32
68654;BME280;55636;51.108;13.622;2023-12-20T04:34:31;99788.09;;;6.14;62.41
68654;BME280;55636;51.108;13.622;2023-12-20T04:35:33;99788.91;;;6.14;62.34
68654;BME280;55636;51.108;13.622;2023-12-20T04:36:36;99787.03;;;6.15;62.27
68654;BME280;55636;51.108;13.622;2023-12-20T04:37:39;99783.44;;;6.14;62.20
68654;BME280;55636;51.108;13.622;2023-12-20T04:38:42;99788.66;;;6.16;62.15
68654;BME280;55636;51.108;13.622;2023-12-20T04:39:44;99789.50;;;6.16;62.16
68654;BME280;55636;51.108;13.622;2023-12-20T04:40:46;99793.06;;;6.17;62.03
68654;BME280;55636;51.108;13.622;2023-12-20T04:41:50;99791.19;;;6.17;62.09
68654;BME280;55636;51.108;13.622;2023-12-20T04:42:52;99787.34;;;6.18;62.07
68654;BME280;55636;51.108;13.622;2023-12-20T04:43:55;99779.13;;;6.18;62.07
68654;BME280;55636;51.108;13.622;2023-12-20T04:44:57;99785.19;;;6.20;61.90
68654;BME280;55636;51.108;13.622;2023-12-20T04:45:59;99789.00;;;6.19;62.00
68654;BME280;55636;51.108;13.622;2023-12-20T04:47:02;99795.09;;;6.21;61.96
68654;BME280;55636;51.108;13.622;2023-12-20T04:48:05;99792.34;;;6.21;62.16
68654;BME280;55636;51.108;13.622;2023-12-20T04:49:08;99794.00;;;6.22;61.98
68654;BME280;55636;51.108;13.622;2023-12-20T04:50:11;99795.91;;;6.22;62.13
68654;BME280;55636;51.108;13.622;2023-12-20T04:51:15;99794.00;;;6.22;62.05
68654;BME280;55636;51.108;13.622;2023-12-20T04:52:18;99796.75;;;6.22;61.89
68654;BME280;55636;51.108;13.622;2023-12-20T04:53:20;99800.09;;;6.24;62.07
68654;BME280;55636;51.108;13.622;2023-12-20T04:54:23;99802.22;;;6.22;61.97
68654;BME280;55636;51.108;13.622;2023-12-20T04:55:25;99801.41;;;6.22;62.13
68654;BME280;55636;51.108;13.622;2023-12-20T04:56:28;99800.34;;;6.23;62.04
68654;BME280;55636;51.108;13.622;2023-12-20T04:57:30;99800.91;;;6.25;62.05
68654;BME280;55636;51.108;13.622;2023-12-20T04:58:32;99795.66;;;6.23;62.08
68654;BME280;55636;51.108;13.622;2023-12-20T04:59:37;99794.59;;;6.24;62.08
68654;BME280;55636;51.108;13.622;2023-12-20T05:00:39;99799.00;;;6.26;62.09
68654;BME280;55636;51.108;13.622;2023-12-20T05:01:42;99797.09;;;6.26;62.01
68654;BME280;55636;51.108;13.622;2023-12-20T05:02:46;99797.94;;;6.27;62.19
68654;BME280;55636;51.108;13.622;2023-12-20T05:03:48;99786.97;;;6.27;62.09
68654;BME280;55636;51.108;13.622;2023-12-20T05:04:50;99790.78;;;6.26;62.16
68654;BME280;55636;51.108;13.622;2023-12-20T05:05:56;99789.72;;;6.27;62.23
68654;BME280;55636;51.108;13.622;2023-12-20T05:06:59;99793.03;;;6.29;62.12
68654;BME280;55636;51.108;13.622;2023-12-20T05:08:01;99797.44;;;6.30;62.12
68654;BME280;55636;51.108;13.622;2023-12-20T05:09:04;99797.44;;;6.30;62.01
68654;BME280;55636;51.108;13.622;2023-12-20T05:10:07;99801.25;;;6.29;61.93
68654;BME280;55636;51.108;13.622;2023-12-20T05:11:12;99816.63;;;6.30;62.04
68654;BME280;55636;51.108;13.622;2023-12-20T05:12:16;99806.47;;;6.30;62.04
68654;BME280;55636;51.108;13.622;2023-12-20T05:13:19;99806.75;;;6.29;62.04
68654;BME280;55636;51.108;13.622;2023-12-20T05:14:21;99804.59;;;6.31;62.10
68654;BME280;55636;51.108;13.622;2023-12-20T05:15:23;99807.34;;;6.31;62.14
68654;BME280;55636;51.108;13.622;2023-12-20T05:16:26;99799.09;;;6.31;62.14
68654;BME280;55636;51.108;13.622;2023-12-20T05:17:28;99809.22;;;6.30;62.12
68654;BME280;55636;51.108;13.622;2023-12-20T05:18:31;99811.97;;;6.30;62.23
68654;BME280;55636;51.108;13.622;2023-12-20T05:19:33;99814.50;;;6.32;62.10
68654;BME280;55636;51.108;13.622;2023-12-20T05:20:37;99810.91;;;6.31;62.29
68654;BME280;55636;51.108;13.622;2023-12-20T05:21:40;99813.66;;;6.31;62.13
68654;BME280;55636;51.108;13.622;2023-12-20T05:22:43;99812.81;;;6.31;61.93
68654;BME280;55636;51.108;13.622;2023-12-20T05:23:47;99808.41;;;6.30;61.88
68654;BME280;55636;51.108;13.622;2023-12-20T05:24:49;99820.44;;;6.29;61.90
68654;BME280;55636;51.108;13.622;2023-12-20T05:25:51;99824.50;;;6.26;61.88
68654;BME280;55636;51.108;13.622;2023-12-20T05:26:54;99820.94;;;6.26;61.86
68654;BME280;55636;51.108;13.622;2023-12-20T05:27:57;99816.28;;;6.26;61.79
68654;BME280;55636;51.108;13.622;2023-12-20T05:29:00;99820.09;;;6.25;61.90
68654;BME280;55636;51.108;13.622;2023-12-20T05:30:02;99828.13;;;6.27;61.78
68654;BME280;55636;51.108;13.622;2023-12-20T05:31:06;99815.47;;;6.26;61.76
68654;BME280;55636;51.108;13.622;2023-12-20T05:32:10;99814.63;;;6.25;61.78
68654;BME280;55636;51.108;13.622;2023-12-20T05:33:12;99812.13;;;6.23;61.72